createdAt,value
2018-06-17T00:01:17.964Z,91.40
2018-06-17T00:03:47.196Z,90.50
2018-06-17T00:06:16.429Z,90.60
2018-06-17T00:11:14.344Z,90.10
2018-06-17T00:13:43.577Z,90.20
2018-06-17T00:16:12.799Z,90.20
2018-06-17T00:18:42.251Z,90.40
2018-06-17T00:21:11.548Z,90.90
2018-06-17T00:23:40.781Z,90.80
2018-06-17T00:26:10.004Z,90.60
2018-06-17T00:28:39.239Z,90.70
2018-06-17T00:31:08.599Z,90.50
2018-06-17T00:33:37.844Z,91.00
2018-06-17T00:36:07.068Z,91.00
2018-06-17T00:38:36.299Z,91.00
2018-06-17T00:41:05.539Z,90.80
2018-06-17T00:43:34.945Z,91.50
2018-06-17T00:46:04.244Z,91.30
2018-06-17T00:48:33.473Z,91.50
2018-06-17T00:51:02.897Z,91.40
2018-06-17T00:53:32.474Z,91.90
2018-06-17T00:56:01.708Z,92.10
2018-06-17T00:58:30.947Z,91.50
2018-06-17T01:01:00.281Z,92.00
2018-06-17T01:03:29.548Z,91.90
2018-06-17T01:05:58.770Z,91.60
2018-06-17T01:08:28.008Z,91.70
2018-06-17T01:10:57.300Z,91.30
2018-06-17T01:13:26.547Z,91.90
2018-06-17T01:15:55.771Z,91.80
2018-06-17T01:18:25.009Z,92.70
2018-06-17T01:20:54.585Z,92.00
2018-06-17T01:23:23.836Z,91.50
2018-06-17T01:25:53.355Z,92.10
2018-06-17T01:28:22.576Z,91.80
2018-06-17T01:30:51.779Z,91.80
2018-06-17T01:33:20.983Z,91.70
2018-06-17T01:35:50.183Z,91.90
2018-06-17T01:38:19.400Z,91.90
2018-06-17T01:40:48.634Z,92.10
2018-06-17T01:43:17.895Z,92.80
2018-06-17T01:45:47.095Z,92.70
2018-06-17T01:48:16.299Z,92.70
2018-06-17T01:50:45.592Z,92.00
2018-06-17T01:53:14.876Z,92.60
2018-06-17T01:55:44.348Z,92.60
2018-06-17T01:58:13.577Z,92.60
2018-06-17T02:00:42.949Z,92.50
2018-06-17T02:03:17.195Z,92.90
2018-06-17T02:05:51.619Z,92.80
2018-06-17T02:08:25.936Z,92.30
2018-06-17T02:11:00.380Z,92.10
2018-06-17T02:13:29.656Z,91.80
2018-06-17T02:15:58.851Z,92.00
2018-06-17T02:18:28.072Z,92.30
2018-06-17T02:20:57.321Z,92.10
2018-06-17T02:23:26.542Z,91.60
2018-06-17T02:25:55.801Z,91.80
2018-06-17T02:28:25.017Z,91.70
2018-06-17T02:30:54.301Z,91.20
2018-06-17T02:33:23.513Z,91.00
2018-06-17T02:35:52.740Z,91.50
2018-06-17T02:38:21.936Z,91.50
2018-06-17T02:40:51.242Z,91.70
2018-06-17T02:43:20.434Z,91.60
2018-06-17T02:45:55.825Z,91.00
2018-06-17T02:48:30.129Z,90.70
2018-06-17T02:51:04.479Z,91.10
2018-06-17T02:53:38.731Z,91.10
2018-06-17T02:56:08.030Z,91.10
2018-06-17T02:58:37.569Z,91.10
2018-06-17T03:01:06.896Z,91.50
2018-06-17T03:03:36.200Z,91.40
2018-06-17T03:06:05.557Z,91.70
2018-06-17T03:08:34.780Z,91.60
2018-06-17T03:11:04.113Z,91.60
2018-06-17T03:13:33.339Z,91.50
2018-06-17T03:16:02.568Z,92.30
2018-06-17T03:18:31.807Z,92.10
2018-06-17T03:21:01.099Z,92.20
2018-06-17T03:23:30.339Z,91.70
2018-06-17T03:26:04.630Z,92.70
2018-06-17T03:28:39.262Z,91.90
2018-06-17T03:31:13.591Z,92.00
2018-06-17T03:33:46.795Z,91.30
2018-06-17T03:36:16.938Z,91.40
2018-06-17T03:38:46.180Z,91.30
2018-06-17T03:41:15.480Z,91.30
2018-06-17T03:43:44.713Z,91.90
2018-06-17T03:46:13.951Z,91.30
2018-06-17T03:48:43.176Z,91.50
2018-06-17T03:51:12.479Z,91.40
2018-06-17T03:53:41.708Z,91.40
2018-06-17T03:56:10.931Z,91.60
2018-06-17T03:58:40.401Z,91.50
2018-06-17T04:01:09.680Z,91.90
2018-06-17T04:03:38.875Z,91.50
2018-06-17T04:06:08.129Z,91.40
2018-06-17T04:08:37.376Z,90.80
2018-06-17T04:11:06.706Z,91.00
2018-06-17T04:13:35.904Z,90.60
2018-06-17T04:16:05.192Z,90.40
2018-06-17T04:18:34.437Z,90.60
2018-06-17T04:21:03.708Z,91.20
2018-06-17T04:23:32.900Z,91.30
2018-06-17T04:26:02.103Z,91.50
2018-06-17T04:28:31.299Z,91.60
2018-06-17T04:31:01.083Z,90.50
2018-06-17T04:33:30.332Z,90.70
2018-06-17T04:35:59.576Z,90.90
2018-06-17T04:38:28.847Z,91.20
2018-06-17T04:40:58.213Z,91.70
2018-06-17T04:43:27.408Z,90.70
2018-06-17T04:45:56.608Z,92.00
2018-06-17T04:48:25.863Z,91.40
2018-06-17T04:50:55.104Z,92.70
2018-06-17T04:53:24.329Z,91.60
2018-06-17T04:55:53.555Z,91.50
2018-06-17T05:00:51.544Z,91.90
2018-06-17T05:05:49.989Z,91.30
2018-06-17T05:08:19.228Z,91.30
2018-06-17T05:10:48.588Z,91.50
2018-06-17T05:13:17.807Z,91.50
2018-06-17T05:15:47.053Z,91.70
2018-06-17T05:18:16.289Z,91.90
2018-06-17T05:20:45.624Z,92.40
2018-06-17T05:23:14.940Z,91.90
2018-06-17T05:25:44.314Z,92.00
2018-06-17T05:28:13.612Z,92.40
2018-06-17T05:32:11.997Z,92.40
2018-06-17T05:34:41.336Z,92.10
2018-06-17T05:37:10.589Z,92.40
2018-06-17T05:39:39.867Z,92.90
2018-06-17T05:42:09.195Z,92.90
2018-06-17T05:44:38.501Z,92.80
2018-06-17T05:47:07.773Z,92.80
2018-06-17T05:49:37.100Z,92.80
2018-06-17T05:52:06.409Z,92.70
2018-06-17T05:54:35.652Z,92.70
2018-06-17T05:57:05.077Z,93.40
2018-06-17T05:59:34.405Z,93.10
2018-06-17T06:02:04.526Z,93.00
2018-06-17T06:04:33.896Z,93.10
2018-06-17T06:07:03.232Z,93.10
2018-06-17T06:09:32.790Z,92.90
2018-06-17T06:12:02.142Z,92.90
2018-06-17T06:14:31.575Z,92.90
2018-06-17T06:17:00.806Z,93.00
2018-06-17T06:19:30.105Z,93.10
2018-06-17T06:21:59.358Z,93.10
2018-06-17T06:24:28.640Z,93.10
2018-06-17T06:26:57.916Z,93.20
2018-06-17T06:29:27.154Z,93.30
2018-06-17T06:31:56.521Z,93.30
2018-06-17T06:34:25.817Z,92.90
2018-06-17T06:36:55.118Z,93.10
2018-06-17T06:39:24.795Z,93.20
2018-06-17T06:41:54.184Z,93.40
2018-06-17T06:44:23.466Z,93.50
2018-06-17T06:46:52.780Z,92.80
2018-06-17T06:51:50.913Z,93.90
2018-06-17T06:54:20.217Z,93.80
2018-06-17T06:56:49.420Z,94.30
2018-06-17T06:59:18.713Z,94.80
2018-06-17T07:01:58.884Z,93.30
2018-06-17T07:04:38.938Z,93.50
2018-06-17T07:07:19.100Z,93.50
2018-06-17T07:09:59.421Z,93.30
2018-06-17T07:12:28.747Z,93.20
2018-06-17T07:14:58.053Z,93.30
2018-06-17T07:17:38.232Z,94.40
2018-06-17T07:20:07.527Z,94.40
2018-06-17T07:22:36.834Z,94.00
2018-06-17T07:25:06.414Z,95.20
2018-06-17T07:27:54.572Z,94.50
2018-06-17T07:30:23.851Z,94.10
2018-06-17T07:32:53.553Z,94.10
2018-06-17T07:35:22.957Z,93.90
2018-06-17T07:37:52.262Z,93.60
2018-06-17T07:40:49.280Z,93.40
2018-06-17T07:43:18.649Z,94.30
2018-06-17T07:45:47.948Z,93.10
2018-06-17T07:48:28.248Z,93.00
2018-06-17T07:51:08.581Z,93.10
2018-06-17T07:53:37.803Z,93.00
2018-06-17T07:56:07.081Z,92.80
2018-06-17T07:58:36.408Z,92.80
2018-06-17T08:01:05.792Z,92.50
2018-06-17T08:03:35.072Z,92.10
2018-06-17T08:08:33.121Z,91.90
2018-06-17T08:11:02.560Z,91.20
2018-06-17T08:13:31.823Z,91.20
2018-06-17T08:16:01.205Z,91.40
2018-06-17T08:18:30.504Z,92.00
2018-06-17T08:20:59.851Z,92.40
2018-06-17T08:23:29.105Z,92.70
2018-06-17T08:25:58.364Z,91.70
2018-06-17T08:28:27.631Z,92.10
2018-06-17T08:30:56.996Z,91.00
2018-06-17T08:33:26.264Z,91.50
2018-06-17T08:35:55.751Z,91.00
2018-06-17T08:38:25.035Z,91.00
2018-06-17T08:40:54.408Z,90.30
2018-06-17T08:43:23.961Z,90.20
2018-06-17T08:45:53.285Z,91.00
2018-06-17T08:50:51.763Z,88.20
2018-06-17T08:53:21.456Z,88.60
2018-06-17T08:55:51.051Z,89.20
2018-06-17T08:58:20.873Z,86.20
2018-06-17T09:00:50.408Z,86.40
2018-06-17T09:03:20.009Z,84.90
2018-06-17T09:05:49.824Z,86.40
2018-06-17T09:08:19.602Z,87.90
2018-06-17T09:10:49.240Z,89.00
2018-06-17T09:13:19.022Z,89.30
2018-06-17T09:15:48.943Z,90.30
2018-06-17T09:18:18.969Z,90.50
2018-06-17T09:20:48.792Z,90.50
2018-06-17T09:23:18.578Z,90.40
2018-06-17T09:25:48.120Z,90.60
2018-06-17T09:28:17.852Z,90.20
2018-06-17T09:30:47.396Z,89.50
2018-06-17T09:33:16.952Z,87.50
2018-06-17T09:35:46.629Z,85.90
2018-06-17T09:38:16.475Z,86.10
2018-06-17T09:43:14.722Z,89.40
2018-06-17T09:45:44.073Z,89.90
2018-06-17T09:48:13.404Z,89.30
2018-06-17T09:50:42.767Z,89.50
2018-06-17T09:53:12.080Z,87.00
2018-06-17T09:58:10.114Z,89.00
2018-06-17T10:00:39.762Z,89.70
2018-06-17T10:03:09.129Z,88.60
2018-06-17T10:05:38.465Z,90.20
2018-06-17T10:08:07.745Z,89.10
2018-06-17T10:10:49.109Z,87.80
2018-06-17T10:13:19.054Z,87.20
2018-06-17T10:15:48.957Z,86.00
2018-06-17T10:18:19.476Z,87.40
2018-06-17T10:20:49.009Z,87.80
2018-06-17T10:23:18.357Z,88.10
2018-06-17T10:25:47.671Z,88.90
2018-06-17T10:28:17.308Z,90.10
2018-06-17T10:30:47.928Z,88.10
2018-06-17T10:33:17.152Z,86.80
2018-06-17T10:35:46.932Z,86.70
2018-06-17T10:38:16.468Z,86.10
2018-06-17T10:40:47.099Z,84.80
2018-06-17T10:43:17.699Z,84.40
2018-06-17T10:45:47.096Z,85.40
2018-06-17T10:48:16.833Z,83.20
2018-06-17T10:50:46.221Z,85.30
2018-06-17T10:53:15.491Z,82.10
2018-06-17T10:55:44.899Z,82.10
2018-06-17T10:58:14.155Z,83.70
2018-06-17T11:00:43.552Z,83.70
2018-06-17T11:03:12.919Z,80.90
2018-06-17T11:05:42.257Z,81.20
2018-06-17T11:08:11.583Z,83.00
2018-06-17T11:10:40.949Z,82.80
2018-06-17T11:13:10.332Z,82.00
2018-06-17T11:15:39.650Z,81.60
2018-06-17T11:18:08.965Z,83.90
2018-06-17T11:20:38.408Z,79.90
2018-06-17T11:23:08.009Z,82.40
2018-06-17T11:25:37.469Z,83.60
2018-06-17T11:28:06.817Z,82.90
2018-06-17T11:30:36.216Z,81.10
2018-06-17T11:33:05.525Z,82.90
2018-06-17T11:35:34.943Z,82.10
2018-06-17T11:38:04.360Z,81.10
2018-06-17T11:42:03.032Z,84.10
2018-06-17T11:44:32.406Z,82.40
2018-06-17T11:47:01.828Z,83.30
2018-06-17T11:49:31.284Z,82.00
2018-06-17T11:52:00.687Z,82.60
2018-06-17T11:54:29.966Z,84.20
2018-06-17T11:56:59.260Z,83.10
2018-06-17T11:59:28.569Z,83.00
2018-06-17T12:01:57.912Z,82.10
2018-06-17T12:04:27.197Z,80.90
2018-06-17T12:06:56.468Z,82.60
2018-06-17T12:09:25.760Z,82.70
2018-06-17T12:11:55.108Z,82.30
2018-06-17T12:14:24.397Z,85.40
2018-06-17T12:16:53.689Z,84.80
2018-06-17T12:19:23.005Z,85.80
2018-06-17T12:21:52.504Z,82.20
2018-06-17T12:24:21.809Z,87.80
2018-06-17T12:26:51.113Z,85.50
2018-06-17T12:31:49.216Z,87.40
2018-06-17T12:34:18.793Z,86.20
2018-06-17T12:36:48.176Z,83.90
2018-06-17T12:39:17.424Z,87.60
2018-06-17T12:41:47.467Z,89.00
2018-06-17T12:44:17.467Z,88.10
2018-06-17T12:46:46.805Z,90.10
2018-06-17T12:49:16.064Z,91.00
2018-06-17T12:51:45.452Z,85.70
2018-06-17T12:54:15.055Z,89.00
2018-06-17T12:56:45.341Z,90.30
2018-06-17T12:59:14.734Z,86.70
2018-06-17T13:01:45.721Z,90.40
2018-06-17T13:04:14.984Z,85.60
2018-06-17T13:06:44.643Z,86.20
2018-06-17T13:09:14.293Z,85.40
2018-06-17T13:11:43.723Z,86.90
2018-06-17T13:14:12.999Z,90.10
2018-06-17T13:16:42.358Z,87.10
2018-06-17T13:19:11.736Z,87.50
2018-06-17T13:21:41.008Z,86.30
2018-06-17T13:24:10.320Z,88.20
2018-06-17T13:26:39.640Z,87.00
2018-06-17T13:29:09.170Z,86.70
2018-06-17T13:31:40.538Z,87.00
2018-06-17T13:34:09.884Z,84.80
2018-06-17T13:36:39.193Z,89.00
2018-06-17T13:39:09.508Z,85.50
2018-06-17T13:41:38.967Z,86.30
2018-06-17T13:44:08.390Z,84.60
2018-06-17T13:46:37.700Z,87.40
2018-06-17T13:49:06.974Z,87.20
2018-06-17T13:51:36.322Z,84.70
2018-06-17T13:54:05.602Z,84.20
2018-06-17T13:56:34.951Z,84.40
2018-06-17T13:59:04.559Z,86.40
2018-06-17T14:01:33.912Z,87.60
2018-06-17T14:04:03.229Z,85.10
2018-06-17T14:06:32.551Z,82.90
2018-06-17T14:09:01.844Z,87.30
2018-06-17T14:11:31.250Z,87.90
2018-06-17T14:14:00.513Z,88.00
2018-06-17T14:16:29.748Z,84.60
2018-06-17T14:18:59.115Z,82.40
2018-06-17T14:21:28.450Z,79.30
2018-06-17T14:23:57.747Z,80.00
2018-06-17T14:26:27.049Z,84.60
2018-06-17T14:28:56.340Z,88.10
2018-06-17T14:31:25.724Z,88.60
2018-06-17T14:33:55.268Z,84.80
2018-06-17T14:36:24.928Z,84.50
2018-06-17T14:38:54.233Z,87.80
2018-06-17T14:41:23.561Z,90.20
2018-06-17T14:43:57.949Z,87.10
2018-06-17T14:46:32.396Z,88.00
2018-06-17T14:49:06.766Z,88.00
2018-06-17T14:51:41.174Z,90.00
2018-06-17T14:54:10.448Z,89.70
2018-06-17T14:56:39.811Z,90.20
2018-06-17T14:59:09.277Z,90.60
2018-06-17T15:01:38.720Z,90.40
2018-06-17T15:04:08.028Z,90.50
2018-06-17T15:06:37.277Z,91.20
2018-06-17T15:09:08.988Z,91.90
2018-06-17T15:11:38.357Z,86.70
2018-06-17T15:14:07.624Z,91.70
2018-06-17T15:16:37.141Z,91.10
2018-06-17T15:19:06.478Z,91.20
2018-06-17T15:21:35.789Z,89.50
2018-06-17T15:24:05.285Z,86.90
2018-06-17T15:26:34.589Z,87.10
2018-06-17T15:29:03.940Z,87.00
2018-06-17T15:31:38.342Z,89.30
2018-06-17T15:35:13.684Z,88.00
2018-06-17T15:37:48.690Z,87.40
2018-06-17T15:40:18.161Z,89.00
2018-06-17T15:42:47.433Z,88.00
2018-06-17T15:45:16.720Z,90.20
2018-06-17T15:47:46.009Z,86.60
2018-06-17T15:50:15.310Z,87.90
2018-06-17T15:52:44.608Z,89.80
2018-06-17T15:55:13.927Z,90.10
2018-06-17T15:57:43.194Z,89.30
2018-06-17T16:00:12.505Z,89.10
2018-06-17T16:02:41.836Z,90.00
2018-06-17T16:05:11.593Z,88.00
2018-06-17T16:07:40.908Z,86.60
2018-06-17T16:10:10.492Z,88.20
2018-06-17T16:12:44.864Z,89.80
2018-06-17T16:16:23.209Z,87.10
2018-06-17T16:18:57.576Z,89.90
2018-06-17T16:21:26.903Z,89.50
2018-06-17T16:23:56.211Z,88.20
2018-06-17T16:26:25.528Z,87.80
2018-06-17T16:28:54.904Z,88.70
2018-06-17T16:31:24.191Z,86.80
2018-06-17T16:33:53.456Z,88.40
2018-06-17T16:36:22.860Z,86.80
2018-06-17T16:38:52.131Z,86.20
2018-06-17T16:41:21.503Z,88.30
2018-06-17T16:43:50.792Z,87.30
2018-06-17T16:46:20.068Z,87.80
2018-06-17T16:48:49.339Z,88.00
2018-06-17T16:51:23.684Z,88.90
2018-06-17T16:53:58.028Z,89.20
2018-06-17T16:56:32.736Z,89.00
2018-06-17T16:59:07.238Z,88.60
2018-06-17T17:01:36.738Z,89.10
2018-06-17T17:04:07.131Z,90.20
2018-06-17T17:06:36.844Z,92.40
2018-06-17T17:09:09.297Z,90.70
2018-06-17T17:11:40.433Z,92.00
2018-06-17T17:14:10.760Z,92.70
2018-06-17T17:16:40.620Z,93.90
2018-06-17T17:19:09.967Z,93.20
2018-06-17T17:21:40.091Z,93.20
2018-06-17T17:24:09.419Z,91.50
2018-06-17T17:26:39.028Z,91.50
2018-06-17T17:29:08.308Z,92.40
2018-06-17T17:31:42.643Z,94.00
2018-06-17T17:34:16.909Z,92.50
2018-06-17T17:36:51.442Z,91.60
2018-06-17T17:39:26.092Z,91.70
2018-06-17T17:41:55.561Z,92.40
2018-06-17T17:44:24.911Z,93.20
2018-06-17T17:46:59.393Z,93.10
2018-06-17T17:49:28.685Z,92.50
2018-06-17T17:51:58.073Z,92.90
2018-06-17T17:54:27.351Z,93.10
2018-06-17T17:56:56.688Z,94.50
2018-06-17T17:59:25.971Z,94.60
2018-06-17T18:04:24.156Z,90.40
2018-06-17T18:06:53.610Z,91.70
2018-06-17T18:09:22.849Z,91.60
2018-06-17T18:11:52.256Z,91.00
2018-06-17T18:14:22.001Z,91.10
2018-06-17T18:16:51.326Z,91.40
2018-06-17T18:19:20.632Z,91.60
2018-06-17T18:21:50.000Z,91.40
2018-06-17T18:24:19.369Z,89.50
2018-06-17T18:26:53.758Z,90.20
2018-06-17T18:29:28.148Z,90.40
2018-06-17T18:32:02.521Z,89.90
2018-06-17T18:34:36.808Z,89.30
2018-06-17T18:37:06.406Z,88.60
2018-06-17T18:39:35.655Z,89.50
2018-06-17T18:42:05.059Z,89.90
2018-06-17T18:44:34.360Z,88.50
2018-06-17T18:47:03.643Z,90.20
2018-06-17T18:49:32.940Z,90.70
2018-06-17T18:52:02.240Z,91.00
2018-06-17T18:54:31.545Z,90.10
2018-06-17T18:57:00.868Z,90.10
2018-06-17T19:01:59.230Z,90.10
2018-06-17T19:04:28.519Z,90.10
2018-06-17T19:06:57.840Z,88.70
2018-06-17T19:09:32.308Z,89.50
2018-06-17T19:12:06.829Z,89.40
2018-06-17T19:14:41.779Z,90.00
2018-06-17T19:17:16.114Z,90.20
2018-06-17T19:19:45.384Z,90.70
2018-06-17T19:22:14.745Z,91.00
2018-06-17T19:24:44.049Z,89.90
2018-06-17T19:27:13.495Z,90.10
2018-06-17T19:29:43.045Z,90.20
2018-06-17T19:32:12.433Z,89.00
2018-06-17T19:34:41.757Z,89.80
2018-06-17T19:37:11.003Z,89.50
2018-06-17T19:39:40.296Z,89.50
2018-06-17T19:42:09.646Z,89.70
2018-06-17T19:44:39.163Z,89.90
2018-06-17T19:47:08.476Z,88.10
2018-06-17T19:49:42.868Z,87.80
2018-06-17T19:52:17.245Z,89.20
2018-06-17T19:54:51.766Z,88.90
2018-06-17T19:57:26.070Z,87.70
2018-06-17T20:00:00.325Z,88.80
2018-06-17T20:02:29.700Z,87.70
2018-06-17T20:04:58.931Z,87.70
2018-06-17T20:07:28.157Z,87.60
2018-06-17T20:09:57.454Z,87.40
2018-06-17T20:12:26.733Z,86.80
2018-06-17T20:14:55.961Z,85.80
2018-06-17T20:17:25.339Z,88.50
2018-06-17T20:19:54.557Z,88.20
2018-06-17T20:22:23.823Z,85.60
2018-06-17T20:24:53.264Z,84.30
2018-06-17T20:27:22.527Z,85.00
2018-06-17T20:29:51.757Z,85.00
2018-06-17T20:32:26.229Z,83.90
2018-06-17T20:35:00.745Z,84.20
2018-06-17T20:37:35.104Z,83.10
2018-06-17T20:40:10.034Z,85.70
2018-06-17T20:42:44.443Z,83.00
2018-06-17T20:45:14.063Z,82.10
2018-06-17T20:47:43.550Z,81.20
2018-06-17T20:50:12.829Z,82.00
2018-06-17T20:52:42.055Z,82.40
2018-06-17T20:55:11.289Z,80.20
2018-06-17T20:57:40.654Z,82.50
2018-06-17T21:00:09.885Z,83.70
2018-06-17T21:02:39.085Z,84.10
2018-06-17T21:05:08.324Z,88.90
2018-06-17T21:07:37.548Z,86.20
2018-06-17T21:10:07.259Z,83.30
2018-06-17T21:12:36.776Z,84.00
2018-06-17T21:15:11.197Z,82.40
2018-06-17T21:17:40.661Z,81.80
2018-06-17T21:20:15.310Z,84.50
2018-06-17T21:22:49.632Z,82.70
2018-06-17T21:25:24.082Z,83.90
2018-06-17T21:27:54.793Z,84.20
2018-06-17T21:30:24.087Z,87.10
2018-06-17T21:32:53.301Z,84.90
2018-06-17T21:35:22.520Z,89.60
2018-06-17T21:37:51.788Z,87.30
2018-06-17T21:40:21.083Z,86.10
2018-06-17T21:42:50.288Z,86.20
2018-06-17T21:45:19.484Z,86.50
2018-06-17T21:47:48.716Z,88.50
2018-06-17T21:50:18.259Z,82.60
2018-06-17T21:52:47.488Z,84.40
2018-06-17T21:55:16.717Z,83.10
2018-06-17T21:57:45.958Z,83.00
2018-06-17T22:00:15.208Z,82.80
2018-06-17T22:02:45.513Z,83.30
2018-06-17T22:05:14.813Z,83.90
2018-06-17T22:07:49.097Z,83.50
2018-06-17T22:10:23.444Z,84.60
2018-06-17T22:12:57.674Z,85.10
2018-06-17T22:16:31.751Z,86.30
2018-06-17T22:19:01.000Z,84.60
2018-06-17T22:21:30.657Z,87.50
2018-06-17T22:23:59.880Z,90.10
2018-06-17T22:26:29.157Z,86.80
2018-06-17T22:28:58.442Z,85.00
2018-06-17T22:31:27.779Z,85.00
2018-06-17T22:33:57.013Z,84.40
2018-06-17T22:36:26.265Z,83.90
2018-06-17T22:38:55.479Z,85.40
2018-06-17T22:41:24.778Z,83.20
2018-06-17T22:44:00.367Z,88.70
2018-06-17T22:46:29.652Z,85.60
2018-06-17T22:48:58.858Z,86.10
2018-06-17T22:51:28.129Z,88.20
2018-06-17T22:54:08.428Z,85.20
2018-06-17T22:56:42.728Z,85.50
2018-06-17T22:59:17.121Z,85.70
2018-06-17T23:01:51.412Z,86.40
2018-06-17T23:04:25.803Z,88.10
2018-06-17T23:07:00.113Z,88.30
2018-06-17T23:09:45.457Z,89.30
2018-06-17T23:12:14.753Z,89.00
2018-06-17T23:14:44.012Z,88.90
2018-06-17T23:17:13.254Z,89.20
2018-06-17T23:19:42.457Z,88.20
2018-06-17T23:22:11.785Z,90.80
2018-06-17T23:24:41.028Z,89.50
2018-06-17T23:27:10.256Z,90.10
2018-06-17T23:29:39.475Z,88.10
2018-06-17T23:32:08.727Z,88.40
2018-06-17T23:34:37.944Z,90.10
2018-06-17T23:37:07.286Z,89.90
2018-06-17T23:39:36.520Z,88.90
2018-06-17T23:42:05.853Z,89.30
2018-06-17T23:44:35.048Z,89.40
2018-06-17T23:47:09.295Z,88.30
2018-06-17T23:49:43.615Z,89.00
2018-06-17T23:52:18.869Z,89.60
2018-06-17T23:54:53.417Z,88.10
2018-06-17T23:57:22.646Z,88.80
2018-06-17T23:59:51.839Z,89.70
